63NJ weather

Howell Township Police Heliport
Farmingdale, New Jersey, United States

Public forecast

Using degrees Fahrenheit for public forecast. Weather courtesy of forecast.io.

Closest aviation weather report (METAR) to Howell Township Police Heliport

Closest report is Monmouth Executive Airport, 2.6 nm (4.9 km) ENE. Retrieved 2020/07/02 10:56 UTC (30 minutes ago):

KBLM 021056Z AUTO 31006KT 10SM CLR 20/ A2987 RMK AO2 SLP116 T0200

Closest aviation forecast (TAF) to Howell Township Police Heliport

Closest forecast is Mc Guire Air Force Base, 21.2 nm (39.2 km) WSW. Retrieved 2020/07/02 10:08 UTC (1 hour ago):

TAF KWRI 021000Z 0210/0316 VRB03KT 9999 SCT100 SCT250 QNH2982INS BECMG 0212/0213 36006KT 9999 SCT050 SCT250 QNH2979INS BECMG 0222/0223 26006KT 9999 SCT060 SCT120 QNH2980INS TEMPO 0223/0302 VCSH BKN060 BECMG 0313/0314 33007KT 9999 BKN080 QNH2983INS TX32/0219Z TN18/0210Z